Pettit, Texas
Current Conditions -  °F | °C
As of 11:53 AM on Monday 26 Jan 2015 (Local Time) from KLBB Reporting Station
Clear Clear  
Wind Chill: 63°   Ceiling: Unl
Heat Index: 63°   Visibility: 10mi
Dew Point: 33°   Wind: 12mph
Humidity: 33%   Direction: 290°WNW
Pressure: 30.27"   Gusts: NA
Location:  33.6122°N, 102.39°W
Report Text: KLBB 261753Z 29010KT 10SM CLR 17/01 A3027 RMK AO2 SLP235 T01720006 10172 21011 50003
Loading
Personal Weather Stations






























Interactive Weather Map New forecast layout! Learn more

10-Day Weather Forecast

Advertisements
Track Severe Weather on mobile